createdAt,value
2019-03-18T00:00:15.886Z,7.45
2019-03-18T00:02:44.341Z,10.32
2019-03-18T00:05:12.866Z,6.28
2019-03-18T00:07:41.396Z,8.35
2019-03-18T00:10:10.024Z,10.70
2019-03-18T00:12:38.485Z,9.23
2019-03-18T00:15:09.587Z,8.28
2019-03-18T00:17:38.113Z,8.30
2019-03-18T00:20:08.400Z,9.70
2019-03-18T00:22:36.986Z,11.33
2019-03-18T00:25:12.758Z,10.70
2019-03-18T00:27:41.336Z,10.55
2019-03-18T00:30:20.807Z,9.60
2019-03-18T00:32:49.310Z,11.60
2019-03-18T00:35:17.768Z,9.15
2019-03-18T00:37:46.408Z,11.97
2019-03-18T00:40:17.997Z,9.15
2019-03-18T00:42:46.546Z,10.23
2019-03-18T00:45:15.833Z,10.85
2019-03-18T00:47:44.749Z,12.10
2019-03-18T00:50:15.035Z,13.78
2019-03-18T00:52:43.833Z,14.43
2019-03-18T00:55:12.539Z,11.48
2019-03-18T00:57:40.988Z,8.23
2019-03-18T01:00:16.805Z,10.45
2019-03-18T01:02:45.690Z,10.50
2019-03-18T01:05:14.389Z,10.68
2019-03-18T01:07:42.928Z,12.70
2019-03-18T01:10:15.514Z,11.73
2019-03-18T01:12:43.981Z,14.70
2019-03-18T01:15:26.936Z,12.75
2019-03-18T01:17:43.994Z,10.60
2019-03-18T01:20:13.791Z,10.78
2019-03-18T01:22:42.318Z,10.95
2019-03-18T01:25:12.265Z,12.18
2019-03-18T01:27:41.300Z,14.55
2019-03-18T01:30:11.715Z,15.10
2019-03-18T01:32:40.188Z,11.22
2019-03-18T01:35:10.291Z,13.93
2019-03-18T01:37:39.267Z,17.67
2019-03-18T01:40:12.774Z,12.88
2019-03-18T01:42:41.306Z,12.85
2019-03-18T01:45:10.870Z,12.75
2019-03-18T01:47:39.392Z,10.85
2019-03-18T01:50:10.562Z,12.75
2019-03-18T01:52:39.153Z,10.68
2019-03-18T01:55:07.802Z,10.45
2019-03-18T01:57:36.303Z,10.30
2019-03-18T02:00:10.336Z,10.32
2019-03-18T02:05:08.046Z,10.40
2019-03-18T02:07:36.988Z,13.13
2019-03-18T02:10:18.475Z,10.68
2019-03-18T02:12:46.925Z,8.33
2019-03-18T02:15:15.869Z,10.15
2019-03-18T02:17:44.491Z,8.23
2019-03-18T02:20:15.257Z,14.10
2019-03-18T02:22:44.255Z,10.40
2019-03-18T02:25:12.774Z,9.53
2019-03-18T02:27:41.221Z,8.93
2019-03-18T02:30:15.471Z,9.35
2019-03-18T02:32:43.925Z,9.98
2019-03-18T02:35:12.511Z,9.10
2019-03-18T02:37:41.012Z,11.20
2019-03-18T02:40:10.565Z,11.95
2019-03-18T02:42:39.170Z,9.38
2019-03-18T02:45:10.311Z,10.53
2019-03-18T02:47:38.864Z,11.78
2019-03-18T02:50:08.641Z,14.98
2019-03-18T02:52:37.141Z,17.05
2019-03-18T02:55:06.849Z,11.73
2019-03-18T02:57:35.761Z,13.83
2019-03-18T03:00:07.338Z,12.18
2019-03-18T03:02:35.916Z,15.10
2019-03-18T03:05:06.642Z,13.30
2019-03-18T03:07:35.142Z,15.93
2019-03-18T03:10:04.363Z,9.95
2019-03-18T03:12:32.871Z,10.25
2019-03-18T03:15:01.344Z,12.82
2019-03-18T03:17:29.908Z,11.12
2019-03-18T03:19:58.451Z,16.42
2019-03-18T03:22:26.988Z,15.90
2019-03-18T03:24:55.568Z,13.95
2019-03-18T03:27:24.039Z,14.90
2019-03-18T03:29:52.491Z,15.25
2019-03-18T03:32:21.042Z,17.62
2019-03-18T03:34:49.545Z,12.93
2019-03-18T03:37:17.989Z,14.83
2019-03-18T03:39:46.506Z,15.00
2019-03-18T03:42:15.179Z,13.13
2019-03-18T03:44:43.701Z,16.82
2019-03-18T03:47:12.261Z,19.87
2019-03-18T03:49:40.714Z,14.73
2019-03-18T03:52:09.172Z,15.83
2019-03-18T03:54:37.815Z,18.90
2019-03-18T03:57:06.569Z,18.32
2019-03-18T03:59:35.230Z,19.95
2019-03-18T04:02:03.748Z,16.62
2019-03-18T04:04:32.299Z,19.30
2019-03-18T04:07:00.837Z,21.52
2019-03-18T04:09:29.629Z,21.57
2019-03-18T04:11:58.405Z,16.35
2019-03-18T04:14:26.959Z,22.17
2019-03-18T04:17:02.966Z,21.23
2019-03-18T04:19:25.700Z,19.30
2019-03-18T04:21:54.663Z,20.12
2019-03-18T04:24:23.298Z,19.85
2019-03-18T04:26:51.826Z,21.12
2019-03-18T04:29:22.253Z,19.82
2019-03-18T04:31:50.775Z,20.30
2019-03-18T04:34:19.288Z,21.23
2019-03-18T04:36:47.844Z,22.82
2019-03-18T04:39:16.362Z,22.45
2019-03-18T04:41:44.859Z,22.82
2019-03-18T04:44:13.357Z,22.60
2019-03-18T04:46:41.862Z,20.97
2019-03-18T04:49:10.748Z,20.52
2019-03-18T04:51:39.319Z,20.70
2019-03-18T04:54:08.099Z,20.12
2019-03-18T04:56:36.773Z,22.42
2019-03-18T04:59:05.375Z,24.35
2019-03-18T05:01:33.881Z,22.37
2019-03-18T05:04:02.408Z,24.23
2019-03-18T05:06:30.919Z,19.07
2019-03-18T05:08:59.751Z,23.05
2019-03-18T05:11:28.689Z,18.77
2019-03-18T05:13:57.231Z,24.43
2019-03-18T05:16:25.849Z,21.70
2019-03-18T05:18:54.383Z,23.35
2019-03-18T05:21:22.869Z,26.55
2019-03-18T05:23:51.323Z,22.05
2019-03-18T05:26:22.355Z,23.80
2019-03-18T05:28:50.745Z,24.50
2019-03-18T05:31:19.296Z,27.65
2019-03-18T05:33:47.832Z,24.20
2019-03-18T05:36:16.362Z,27.25
2019-03-18T05:38:44.900Z,26.27
2019-03-18T05:41:13.408Z,22.65
2019-03-18T05:43:41.934Z,25.97
2019-03-18T05:46:10.390Z,21.48
2019-03-18T05:48:38.872Z,28.12
2019-03-18T05:51:07.374Z,25.37
2019-03-18T05:53:35.869Z,27.27
2019-03-18T05:56:04.660Z,25.52
2019-03-18T05:58:33.590Z,24.32
2019-03-18T06:01:02.822Z,26.52
2019-03-18T06:03:31.390Z,27.73
2019-03-18T06:05:59.923Z,26.25
2019-03-18T06:08:28.454Z,29.72
2019-03-18T06:10:56.924Z,28.02
2019-03-18T06:13:25.858Z,33.63
2019-03-18T06:15:55.931Z,36.10
2019-03-18T06:18:27.023Z,30.50
2019-03-18T06:20:58.217Z,29.90
2019-03-18T06:23:26.737Z,28.55
2019-03-18T06:25:55.337Z,35.80
2019-03-18T06:28:25.679Z,33.53
2019-03-18T06:30:54.328Z,28.23
2019-03-18T06:33:24.441Z,32.83
2019-03-18T06:35:52.990Z,29.87
2019-03-18T06:38:21.601Z,29.37
2019-03-18T06:40:50.145Z,25.52
2019-03-18T06:43:18.614Z,29.20
2019-03-18T06:45:47.188Z,27.20
2019-03-18T06:48:17.248Z,29.42
2019-03-18T06:50:45.789Z,29.40
2019-03-18T06:53:15.980Z,25.20
2019-03-18T06:55:44.710Z,20.48
2019-03-18T06:58:13.557Z,22.95
2019-03-18T07:00:42.391Z,23.73
2019-03-18T07:03:14.024Z,25.12
2019-03-18T07:05:42.732Z,24.72
2019-03-18T07:08:11.481Z,18.07
2019-03-18T07:10:42.859Z,18.67
2019-03-18T07:13:13.012Z,22.32
2019-03-18T07:15:41.559Z,16.37
2019-03-18T07:18:18.356Z,20.10
2019-03-18T07:20:40.430Z,16.00
2019-03-18T07:23:12.004Z,21.07
2019-03-18T07:25:40.460Z,19.92
2019-03-18T07:28:09.165Z,21.07
2019-03-18T07:30:37.723Z,15.55
2019-03-18T07:33:06.248Z,16.67
2019-03-18T07:35:34.736Z,18.23
2019-03-18T07:38:03.271Z,21.00
2019-03-18T07:40:31.795Z,17.62
2019-03-18T07:43:00.363Z,16.50
2019-03-18T07:45:28.914Z,15.28
2019-03-18T07:47:57.487Z,21.15
2019-03-18T07:50:26.171Z,23.22
2019-03-18T07:52:54.675Z,16.48
2019-03-18T07:55:28.901Z,16.00
2019-03-18T07:57:57.833Z,16.60
2019-03-18T08:00:26.390Z,16.42
2019-03-18T08:02:54.982Z,17.23
2019-03-18T08:05:23.721Z,17.87
2019-03-18T08:07:55.523Z,14.73
2019-03-18T08:10:24.084Z,18.40
2019-03-18T08:12:54.306Z,15.43
2019-03-18T08:15:22.914Z,12.33
2019-03-18T08:17:51.409Z,15.93
2019-03-18T08:20:19.977Z,13.72
2019-03-18T08:22:48.548Z,14.45
2019-03-18T08:25:17.107Z,13.22
2019-03-18T08:27:45.845Z,14.05
2019-03-18T08:30:15.707Z,16.62
2019-03-18T08:32:44.335Z,13.28
2019-03-18T08:35:12.979Z,14.55
2019-03-18T08:37:41.587Z,14.13
2019-03-18T08:40:11.477Z,15.83
2019-03-18T08:42:40.324Z,12.60
2019-03-18T08:45:12.116Z,13.25
2019-03-18T08:47:40.784Z,12.65
2019-03-18T08:50:12.378Z,15.13
2019-03-18T08:52:41.390Z,12.63
2019-03-18T08:55:11.265Z,10.50
2019-03-18T08:57:39.906Z,13.13
2019-03-18T09:00:13.958Z,11.28
2019-03-18T09:05:10.409Z,13.83
2019-03-18T09:07:39.085Z,16.27
2019-03-18T09:10:10.764Z,13.35
2019-03-18T09:12:39.439Z,13.35
2019-03-18T09:15:10.522Z,12.07
2019-03-18T09:17:39.482Z,14.23
2019-03-18T09:20:10.780Z,15.25
2019-03-18T09:22:39.379Z,15.28
2019-03-18T09:25:09.648Z,15.95
2019-03-18T09:27:38.263Z,15.68
2019-03-18T09:30:19.295Z,14.70
2019-03-18T09:32:47.909Z,18.25
2019-03-18T09:35:16.478Z,15.60
2019-03-18T09:37:45.091Z,13.38
2019-03-18T09:40:15.444Z,12.68
2019-03-18T09:42:44.025Z,11.93
2019-03-18T09:45:14.372Z,16.12
2019-03-18T09:47:42.914Z,15.38
2019-03-18T09:50:12.149Z,15.30
2019-03-18T09:52:40.769Z,11.53
2019-03-18T09:55:10.102Z,15.43
2019-03-18T09:57:38.572Z,12.10
2019-03-18T10:00:12.546Z,10.40
2019-03-18T10:02:41.100Z,14.35
2019-03-18T10:05:09.759Z,15.00
2019-03-18T10:07:38.278Z,12.93
2019-03-18T10:10:09.379Z,15.55
2019-03-18T10:12:37.933Z,11.70
2019-03-18T10:15:09.584Z,16.27
2019-03-18T10:17:38.091Z,12.88
2019-03-18T10:20:08.820Z,12.03
2019-03-18T10:22:37.351Z,13.75
2019-03-18T10:25:07.366Z,15.70
2019-03-18T10:27:37.738Z,14.90
2019-03-18T10:30:09.235Z,16.62
2019-03-18T10:32:37.696Z,11.20
2019-03-18T10:35:06.798Z,14.87
2019-03-18T10:37:35.279Z,16.82
2019-03-18T10:40:06.991Z,11.05
2019-03-18T10:42:35.526Z,10.23
2019-03-18T10:45:05.324Z,10.18
2019-03-18T10:47:33.772Z,8.38
2019-03-18T10:50:02.660Z,11.85
2019-03-18T10:52:31.171Z,11.85
2019-03-18T10:54:59.841Z,13.15
2019-03-18T10:57:28.382Z,12.82
2019-03-18T10:59:56.942Z,9.68
2019-03-18T11:02:25.468Z,8.58
2019-03-18T11:04:54.012Z,10.30
2019-03-18T11:07:22.943Z,9.28
2019-03-18T11:09:51.525Z,12.47
2019-03-18T11:12:22.170Z,17.02
2019-03-18T11:14:50.422Z,13.65
2019-03-18T11:17:19.066Z,12.50
2019-03-18T11:19:57.827Z,14.33
2019-03-18T11:22:17.972Z,13.90
2019-03-18T11:24:46.595Z,11.55
2019-03-18T11:27:16.993Z,15.63
2019-03-18T11:29:45.534Z,14.60
2019-03-18T11:32:14.122Z,19.23
2019-03-18T11:34:44.549Z,15.20
2019-03-18T11:37:13.134Z,16.32
2019-03-18T11:39:41.624Z,16.10
2019-03-18T11:42:10.279Z,13.55
2019-03-18T11:44:38.871Z,14.15
2019-03-18T11:47:07.537Z,11.15
2019-03-18T11:49:39.825Z,14.15
2019-03-18T11:52:06.411Z,13.50
2019-03-18T11:54:35.091Z,14.10
2019-03-18T11:57:03.765Z,8.95
2019-03-18T11:59:32.209Z,8.60
2019-03-18T12:02:00.889Z,8.00
2019-03-18T12:04:39.981Z,6.67
2019-03-18T12:07:06.303Z,7.00
2019-03-18T12:09:34.931Z,8.20
2019-03-18T12:12:13.371Z,7.28
2019-03-18T12:14:41.607Z,6.12
2019-03-18T12:17:20.637Z,6.92
2019-03-18T12:19:49.225Z,6.05
2019-03-18T12:22:17.774Z,3.87
2019-03-18T12:24:48.097Z,5.75
2019-03-18T12:27:16.888Z,6.08
2019-03-18T12:29:48.140Z,5.70
2019-03-18T12:32:18.435Z,5.53
2019-03-18T12:34:48.509Z,5.97
2019-03-18T12:37:16.987Z,10.95
2019-03-18T12:39:45.859Z,6.40
2019-03-18T12:42:14.391Z,7.08
2019-03-18T12:44:43.008Z,8.08
2019-03-18T12:47:11.519Z,8.28
2019-03-18T12:49:40.029Z,11.33
2019-03-18T12:52:08.703Z,10.28
2019-03-18T12:54:37.263Z,10.40
2019-03-18T12:57:05.872Z,8.93
2019-03-18T12:59:34.455Z,9.38
2019-03-18T13:02:03.024Z,8.08
2019-03-18T13:04:34.041Z,12.78
2019-03-18T13:07:01.789Z,10.05
2019-03-18T13:09:30.475Z,8.13
2019-03-18T13:11:58.957Z,12.05
2019-03-18T13:14:27.497Z,6.12
2019-03-18T13:16:56.451Z,5.00
2019-03-18T13:19:24.988Z,9.33
2019-03-18T13:21:53.556Z,11.25
2019-03-18T13:24:22.108Z,9.53
2019-03-18T13:26:50.658Z,9.85
2019-03-18T13:29:19.324Z,19.35
2019-03-18T13:31:47.900Z,10.70
2019-03-18T13:34:16.496Z,6.60
2019-03-18T13:36:45.066Z,6.87
2019-03-18T13:39:13.630Z,9.60
2019-03-18T13:41:42.158Z,8.30
2019-03-18T13:44:11.154Z,6.78
2019-03-18T13:46:39.687Z,8.08
2019-03-18T13:49:08.254Z,14.20
2019-03-18T13:51:36.725Z,6.42
2019-03-18T13:56:52.924Z,8.48
2019-03-18T13:59:21.523Z,9.50
2019-03-18T14:01:51.511Z,6.47
2019-03-18T14:04:26.226Z,9.73
2019-03-18T14:06:54.768Z,6.75
2019-03-18T14:09:23.319Z,9.20
2019-03-18T14:11:51.873Z,8.43
2019-03-18T14:14:20.436Z,6.72
2019-03-18T14:16:49.367Z,8.78
2019-03-18T14:19:18.042Z,10.45
2019-03-18T14:21:46.627Z,10.60
2019-03-18T14:24:15.258Z,9.58
2019-03-18T14:26:43.722Z,11.05
2019-03-18T14:29:12.202Z,6.87
2019-03-18T14:31:43.470Z,9.58
2019-03-18T14:34:10.878Z,8.53
2019-03-18T14:36:39.456Z,9.58
2019-03-18T14:39:08.205Z,12.03
2019-03-18T14:41:36.739Z,11.53
2019-03-18T14:44:05.314Z,8.25
2019-03-18T14:46:33.884Z,9.05
2019-03-18T14:49:02.521Z,14.07
2019-03-18T14:51:30.975Z,13.70
2019-03-18T14:53:59.477Z,12.53
2019-03-18T14:56:28.007Z,8.90
2019-03-18T15:00:45.077Z,9.53
2019-03-18T15:01:35.297Z,8.88
2019-03-18T15:04:04.257Z,8.40
2019-03-18T15:06:32.740Z,8.10
2019-03-18T15:09:01.224Z,5.55
2019-03-18T15:11:29.813Z,6.90
2019-03-18T15:13:58.365Z,9.15
2019-03-18T15:16:26.900Z,5.87
2019-03-18T15:18:55.411Z,7.55
2019-03-18T15:21:23.939Z,7.25
2019-03-18T15:23:52.506Z,8.28
2019-03-18T15:26:21.334Z,6.62
2019-03-18T15:28:50.759Z,9.15
2019-03-18T15:31:19.273Z,7.80
2019-03-18T15:33:47.829Z,7.22
2019-03-18T15:36:16.438Z,10.03
2019-03-18T15:38:44.987Z,8.55
2019-03-18T15:41:13.680Z,8.73
2019-03-18T15:43:42.254Z,8.18
2019-03-18T15:46:11.295Z,9.10
2019-03-18T15:48:42.901Z,12.05
2019-03-18T15:51:11.432Z,9.25
2019-03-18T15:53:40.070Z,10.82
2019-03-18T15:56:09.109Z,11.33
2019-03-18T15:58:37.741Z,9.15
2019-03-18T16:01:06.266Z,9.68
2019-03-18T16:03:34.732Z,8.98
2019-03-18T16:06:03.351Z,9.95
2019-03-18T16:08:31.851Z,14.60
2019-03-18T16:11:00.362Z,9.93
2019-03-18T16:13:28.827Z,11.40
2019-03-18T16:15:58.934Z,13.15
2019-03-18T16:18:30.171Z,9.28
2019-03-18T16:20:59.235Z,15.35
2019-03-18T16:23:27.698Z,14.53
2019-03-18T16:25:56.521Z,13.25
2019-03-18T16:28:24.991Z,12.25
2019-03-18T16:30:53.483Z,9.90
2019-03-18T16:33:21.988Z,11.08
2019-03-18T16:35:50.472Z,11.83
2019-03-18T16:38:18.915Z,10.85
2019-03-18T16:40:47.856Z,11.12
2019-03-18T16:43:16.446Z,12.03
2019-03-18T16:45:45.541Z,14.68
2019-03-18T16:48:14.104Z,15.40
2019-03-18T16:50:42.698Z,12.23
2019-03-18T16:53:11.403Z,11.33
2019-03-18T16:55:40.203Z,14.33
2019-03-18T16:58:09.109Z,11.60
2019-03-18T17:00:37.741Z,13.43
2019-03-18T17:03:06.383Z,10.95
2019-03-18T17:05:34.998Z,13.10
2019-03-18T17:08:03.704Z,12.70
2019-03-18T17:10:33.464Z,9.38
2019-03-18T17:13:02.043Z,9.15
2019-03-18T17:15:36.626Z,9.25
2019-03-18T17:18:10.201Z,12.35
2019-03-18T17:20:38.749Z,10.48
2019-03-18T17:23:11.691Z,7.58
2019-03-18T17:25:43.835Z,13.48
2019-03-18T17:28:12.387Z,12.03
2019-03-18T17:30:40.884Z,11.48
2019-03-18T17:33:09.459Z,9.88
2019-03-18T17:35:37.990Z,12.95
2019-03-18T17:38:06.562Z,14.18
2019-03-18T17:40:35.112Z,10.75
2019-03-18T17:43:03.576Z,13.10
2019-03-18T17:45:32.118Z,10.18
2019-03-18T17:48:00.916Z,15.35
2019-03-18T17:50:30.411Z,10.35
2019-03-18T17:53:03.084Z,9.53
2019-03-18T17:55:29.230Z,10.18
2019-03-18T17:57:57.716Z,11.08
2019-03-18T18:00:27.828Z,13.13
2019-03-18T18:02:56.359Z,12.53
2019-03-18T18:05:26.534Z,10.45
2019-03-18T18:07:55.368Z,11.53
2019-03-18T18:10:23.958Z,14.15
2019-03-18T18:12:55.421Z,10.95
2019-03-18T18:15:27.143Z,8.28
2019-03-18T18:17:55.677Z,11.15
2019-03-18T18:20:24.162Z,10.03
2019-03-18T18:22:52.723Z,13.98
2019-03-18T18:25:21.308Z,7.67
2019-03-18T18:27:51.552Z,10.48
2019-03-18T18:30:20.457Z,19.57
2019-03-18T18:32:48.974Z,14.45
2019-03-18T18:35:19.778Z,13.08
2019-03-18T18:37:48.328Z,13.98
2019-03-18T18:40:21.699Z,14.55
2019-03-18T18:42:50.250Z,14.23
2019-03-18T18:45:21.266Z,18.48
2019-03-18T18:47:49.701Z,17.50
2019-03-18T18:50:22.713Z,11.90
2019-03-18T18:52:48.675Z,10.70
2019-03-18T18:55:17.282Z,11.18
2019-03-18T18:57:45.845Z,8.15
2019-03-18T19:00:19.558Z,12.65
2019-03-18T19:02:48.273Z,15.50
2019-03-18T19:05:17.703Z,17.70
2019-03-18T19:07:46.450Z,13.65
2019-03-18T19:10:19.862Z,19.45
2019-03-18T19:12:48.686Z,15.23
2019-03-18T19:15:20.225Z,19.32
2019-03-18T19:17:48.819Z,17.98
2019-03-18T19:20:17.499Z,15.08
2019-03-18T19:22:46.061Z,17.95
2019-03-18T19:25:16.734Z,13.55
2019-03-18T19:27:48.744Z,16.93
2019-03-18T19:30:20.066Z,25.52
2019-03-18T19:32:48.677Z,28.10
2019-03-18T19:35:17.465Z,26.23
2019-03-18T19:37:46.449Z,21.77
2019-03-18T19:40:16.417Z,29.65
2019-03-18T19:42:45.023Z,21.00
2019-03-18T19:45:14.446Z,17.65
2019-03-18T19:47:43.211Z,19.80
2019-03-18T19:50:14.865Z,19.07
2019-03-18T19:52:43.556Z,18.73
2019-03-18T19:55:12.269Z,22.48
2019-03-18T19:57:40.830Z,17.82
2019-03-18T20:00:15.398Z,16.70
2019-03-18T20:02:43.966Z,15.90
2019-03-18T20:05:15.300Z,17.45
2019-03-18T20:07:42.921Z,16.65
2019-03-18T20:10:13.814Z,19.85
2019-03-18T20:12:42.350Z,16.10
2019-03-18T20:15:15.904Z,19.32
2019-03-18T20:17:44.520Z,17.48
2019-03-18T20:20:18.266Z,28.62
2019-03-18T20:22:46.832Z,39.25
2019-03-18T20:25:15.514Z,25.52
2019-03-18T20:27:44.055Z,21.02
2019-03-18T20:30:22.700Z,18.82
2019-03-18T20:32:51.428Z,20.57
2019-03-18T20:35:20.983Z,15.70
2019-03-18T20:37:51.896Z,22.85
2019-03-18T20:40:20.089Z,18.37
2019-03-18T20:42:48.659Z,14.33
2019-03-18T20:45:19.349Z,21.97
2019-03-18T20:47:47.803Z,16.17
2019-03-18T20:50:20.424Z,16.37
2019-03-18T20:52:48.981Z,19.77
2019-03-18T20:55:17.603Z,16.35
2019-03-18T20:57:46.140Z,25.00
2019-03-18T21:00:23.662Z,18.25
2019-03-18T21:02:52.280Z,16.10
2019-03-18T21:05:20.821Z,18.02
2019-03-18T21:07:49.356Z,17.17
2019-03-18T21:10:18.997Z,23.92
2019-03-18T21:12:48.048Z,26.23
2019-03-18T21:15:17.522Z,17.65
2019-03-18T21:17:46.197Z,12.53
2019-03-18T21:20:19.620Z,16.42
2019-03-18T21:22:48.216Z,16.07
2019-03-18T21:25:16.768Z,14.43
2019-03-18T21:27:45.352Z,15.58
2019-03-18T21:30:19.850Z,16.27
2019-03-18T21:32:48.872Z,15.58
2019-03-18T21:35:19.726Z,18.35
2019-03-18T21:37:48.340Z,15.13
2019-03-18T21:40:17.971Z,13.10
2019-03-18T21:42:46.564Z,10.60
2019-03-18T21:45:16.781Z,17.82
2019-03-18T21:47:45.266Z,14.00
2019-03-18T21:50:15.736Z,14.98
2019-03-18T21:52:44.277Z,12.55
2019-03-18T21:55:13.694Z,14.40
2019-03-18T21:57:42.204Z,19.45
2019-03-18T22:00:16.631Z,18.57
2019-03-18T22:02:45.313Z,22.02
2019-03-18T22:05:14.311Z,20.05
2019-03-18T22:07:42.923Z,15.98
2019-03-18T22:10:15.171Z,21.35
2019-03-18T22:12:46.942Z,24.32
2019-03-18T22:15:16.152Z,19.02
2019-03-18T22:17:44.735Z,20.60
2019-03-18T22:20:15.263Z,26.37
2019-03-18T22:22:45.912Z,18.73
2019-03-18T22:25:15.552Z,20.10
2019-03-18T22:27:44.248Z,22.65
2019-03-18T22:30:19.081Z,19.37
2019-03-18T22:32:47.931Z,17.55
2019-03-18T22:35:16.481Z,24.55
2019-03-18T22:37:45.017Z,18.23
2019-03-18T22:40:17.562Z,20.62
2019-03-18T22:42:46.052Z,28.57
2019-03-18T22:45:18.411Z,16.15
2019-03-18T22:47:46.964Z,18.30
2019-03-18T22:50:17.153Z,17.65
2019-03-18T22:52:45.712Z,21.00
2019-03-18T22:55:15.316Z,16.00
2019-03-18T22:57:43.949Z,19.48
2019-03-18T23:00:39.913Z,16.23
2019-03-18T23:03:08.484Z,21.20
2019-03-18T23:05:36.998Z,20.05
2019-03-18T23:08:05.798Z,20.75
2019-03-18T23:10:34.348Z,21.02
2019-03-18T23:13:02.962Z,20.77
2019-03-18T23:15:33.733Z,27.22
2019-03-18T23:18:02.269Z,22.45
2019-03-18T23:20:31.058Z,24.00
2019-03-18T23:22:59.527Z,26.30
2019-03-18T23:25:28.096Z,25.08
2019-03-18T23:27:56.642Z,25.27
2019-03-18T23:30:25.105Z,24.72
2019-03-18T23:32:54.036Z,28.52
2019-03-18T23:35:22.504Z,30.50
2019-03-18T23:37:51.039Z,27.65
2019-03-18T23:40:19.565Z,24.57
2019-03-18T23:42:48.091Z,23.42
2019-03-18T23:45:16.732Z,24.23
2019-03-18T23:47:45.223Z,22.30
2019-03-18T23:50:14.922Z,22.00
2019-03-18T23:52:43.398Z,23.38
2019-03-18T23:55:19.187Z,21.48
2019-03-18T23:57:42.276Z,24.20
